OICS  Sanandaj  Airport

Iran

Add Bookmark
ICAO OICS
IATA SDG
Type Airport
Status Operational
Latitude
35° 14' 45" N
35.245899
Longitude
47° 0' 33" E
47.009201
Local (DST + 5) UTC (GMT + 4)
May 22, 2015 03:59 May 22, 2015 11:29
Sunrise-Sunset Local UTC
Begin Civil Twilight 05:42 01:12
Sunrise 06:11 01:41
Sunset 08:25 15:55
End Civil Twilight 08:54 16:24
VFR
VFR
MVFR
MVFR
IFR
VFR
LIFR
VFR
Unknown
Unavailable

Current Weather

METAR Observed VFR
OICS 221100Z 16008KT 9999 FEW040TCU BKN190 30/M03 Q1015 Fri, May 22, 2015 @ 11:00 UTC
(29 Minutes ago)
Visual Flight Rules
Wind Visibility Clouds Conditions
160° at 8 knots (15 kph) 10 km or more
  • Few at 4,000 ft AGL
  • Broken at 19,000 ft AGL
  • No significant weather
Temperatures Readings Precipitation
Current Temp
30°C
86°F
Dewpoint
-3°C
27°F
Humidity 11%
Altimeter 29.97" Hg
Sea Level Pressure 1,015 mb
Field Elevation
1,373 m
4,505 ft
None Recorded
-
-

CheckWX.com is intended as a tool to help pilots better visualize weather data. It is not intended as a substitute for an official weather briefing obtained from a Flight Service Station. CheckWX.com does not meet the FAA requirements for an official pre-flight weather briefing. Therefore, it's important that pilots still call and obtain an official FSS pre-flight weather briefing.

© 2007-2015 CheckWX.com
11:29:23 UTC